createdAt,value
2018-07-19T00:01:15.896Z,17.93
2018-07-19T00:03:48.263Z,10.60
2018-07-19T00:06:20.890Z,14.27
2018-07-19T00:08:53.082Z,16.47
2018-07-19T00:11:29.177Z,14.67
2018-07-19T00:14:01.279Z,17.60
2018-07-19T00:16:33.678Z,15.17
2018-07-19T00:19:06.219Z,13.57
2018-07-19T00:21:38.589Z,13.03
2018-07-19T00:24:10.774Z,13.70
2018-07-19T00:26:43.937Z,15.63
2018-07-19T00:29:16.685Z,12.77
2018-07-19T00:31:50.971Z,13.00
2018-07-19T00:34:23.413Z,14.70
2018-07-19T00:36:55.763Z,12.53
2018-07-19T00:39:28.162Z,14.17
2018-07-19T00:42:00.725Z,17.07
2018-07-19T00:44:33.409Z,18.00
2018-07-19T00:47:05.691Z,15.43
2018-07-19T00:49:37.913Z,14.47
2018-07-19T00:52:10.446Z,19.77
2018-07-19T00:54:42.820Z,19.00
2018-07-19T00:57:15.025Z,20.80
2018-07-19T00:59:47.440Z,13.57
2018-07-19T01:02:19.702Z,9.77
2018-07-19T01:04:51.968Z,18.57
2018-07-19T01:07:24.505Z,16.23
2018-07-19T01:09:58.122Z,14.13
2018-07-19T01:12:30.669Z,20.10
2018-07-19T01:15:03.100Z,14.97
2018-07-19T01:17:35.717Z,13.10
2018-07-19T01:20:07.967Z,14.73
2018-07-19T01:22:40.497Z,11.67
2018-07-19T01:25:12.822Z,14.70
2018-07-19T01:27:45.055Z,12.30
2018-07-19T01:30:17.400Z,14.10
2018-07-19T01:32:49.802Z,16.17
2018-07-19T01:35:22.080Z,14.63
2018-07-19T01:37:54.358Z,14.23
2018-07-19T01:40:27.197Z,12.53
2018-07-19T01:43:04.854Z,13.73
2018-07-19T01:45:36.990Z,16.10
2018-07-19T01:48:09.664Z,16.83
2018-07-19T01:50:41.963Z,14.57
2018-07-19T01:53:15.510Z,13.43
2018-07-19T01:55:49.145Z,14.13
2018-07-19T01:58:22.352Z,21.80
2018-07-19T02:00:54.730Z,15.53
2018-07-19T02:03:26.799Z,17.23
2018-07-19T02:05:59.006Z,19.23
2018-07-19T02:08:31.089Z,16.10
2018-07-19T02:11:11.648Z,11.70
2018-07-19T02:13:47.786Z,13.53
2018-07-19T02:16:20.155Z,13.63
2018-07-19T02:18:52.435Z,10.50
2018-07-19T02:21:24.716Z,13.07
2018-07-19T02:27:27.907Z,15.63
2018-07-19T02:30:00.521Z,14.47
2018-07-19T02:32:32.754Z,15.37
2018-07-19T02:35:05.354Z,17.17
2018-07-19T02:37:37.735Z,12.83
2018-07-19T02:40:09.976Z,13.03
2018-07-19T02:42:43.155Z,11.83
2018-07-19T02:45:15.627Z,27.03
2018-07-19T02:47:48.070Z,19.87
2018-07-19T02:50:20.424Z,16.70
2018-07-19T02:52:52.856Z,15.10
2018-07-19T02:55:25.783Z,19.70
2018-07-19T02:58:01.813Z,13.07
2018-07-19T03:00:34.490Z,12.73
2018-07-19T03:03:07.026Z,15.97
2018-07-19T03:05:39.465Z,22.37
2018-07-19T03:08:11.895Z,14.77
2018-07-19T03:11:22.447Z,16.13
2018-07-19T03:13:54.819Z,15.07
2018-07-19T03:19:48.969Z,11.03
2018-07-19T03:22:21.849Z,15.27
2018-07-19T03:24:54.722Z,16.40
2018-07-19T03:27:27.631Z,11.97
2018-07-19T03:30:00.815Z,10.57
2018-07-19T03:32:34.416Z,15.03
2018-07-19T03:35:10.467Z,14.77
2018-07-19T03:37:44.092Z,11.57
2018-07-19T03:40:19.018Z,15.87
2018-07-19T03:42:52.353Z,12.57
2018-07-19T03:45:26.983Z,15.80
2018-07-19T03:47:59.724Z,11.43
2018-07-19T03:50:32.480Z,15.80
2018-07-19T03:53:05.566Z,9.63
2018-07-19T03:55:38.237Z,11.90
2018-07-19T03:58:11.061Z,12.40
2018-07-19T04:00:43.939Z,9.97
2018-07-19T04:06:37.437Z,14.03
2018-07-19T04:09:10.933Z,17.87
2018-07-19T04:11:45.159Z,15.50
2018-07-19T04:14:17.627Z,12.93
2018-07-19T04:16:50.045Z,13.77
2018-07-19T04:19:22.525Z,12.90
2018-07-19T04:21:55.148Z,14.73
2018-07-19T04:24:27.641Z,19.07
2018-07-19T04:27:00.316Z,23.63
2018-07-19T04:29:33.061Z,17.23
2018-07-19T04:32:05.546Z,22.70
2018-07-19T04:34:38.113Z,14.37
2018-07-19T04:37:10.732Z,20.60
2018-07-19T04:39:43.933Z,15.00
2018-07-19T04:42:16.344Z,12.50
2018-07-19T04:44:48.854Z,10.47
2018-07-19T04:47:21.259Z,14.53
2018-07-19T04:49:53.820Z,9.60
2018-07-19T04:52:26.516Z,14.47
2018-07-19T04:54:59.003Z,13.97
2018-07-19T04:57:31.464Z,10.77
2018-07-19T05:00:04.090Z,11.60
2018-07-19T05:02:36.721Z,15.63
2018-07-19T05:05:09.408Z,12.17
2018-07-19T05:07:41.994Z,15.77
2018-07-19T05:10:15.337Z,12.87
2018-07-19T05:12:47.888Z,19.40
2018-07-19T05:15:20.534Z,15.33
2018-07-19T05:17:53.119Z,14.03
2018-07-19T05:20:25.587Z,10.50
2018-07-19T05:22:58.211Z,8.83
2018-07-19T05:25:30.651Z,11.83
2018-07-19T05:28:03.149Z,12.07
2018-07-19T05:30:35.655Z,16.03
2018-07-19T05:33:08.433Z,15.53
2018-07-19T05:35:40.999Z,16.30
2018-07-19T05:38:13.505Z,11.47
2018-07-19T05:40:46.091Z,17.73
2018-07-19T05:43:18.744Z,14.87
2018-07-19T05:45:51.309Z,24.63
2018-07-19T05:48:23.852Z,22.37
2018-07-19T05:50:56.231Z,82.27
2018-07-19T05:53:28.798Z,63.70
2018-07-19T05:56:01.318Z,23.30
2018-07-19T05:58:33.809Z,17.83
2018-07-19T06:01:06.472Z,15.07
2018-07-19T06:03:38.902Z,18.07
2018-07-19T06:06:11.691Z,15.90
2018-07-19T06:08:44.506Z,12.23
2018-07-19T06:11:17.128Z,14.43
2018-07-19T06:13:49.671Z,14.10
2018-07-19T06:16:22.044Z,14.77
2018-07-19T06:18:54.506Z,12.60
2018-07-19T06:21:26.968Z,11.93
2018-07-19T06:23:59.597Z,17.30
2018-07-19T06:26:32.081Z,14.93
2018-07-19T06:29:04.601Z,16.30
2018-07-19T06:31:37.106Z,11.60
2018-07-19T06:34:09.756Z,15.53
2018-07-19T06:36:42.264Z,10.77
2018-07-19T06:39:14.860Z,15.77
2018-07-19T06:41:47.460Z,12.63
2018-07-19T06:44:19.822Z,14.10
2018-07-19T06:46:52.921Z,12.63
2018-07-19T06:49:25.565Z,10.63
2018-07-19T06:51:58.232Z,14.00
2018-07-19T06:54:30.714Z,12.53
2018-07-19T06:57:03.132Z,13.17
2018-07-19T06:59:35.887Z,12.77
2018-07-19T07:02:08.475Z,10.00
2018-07-19T07:04:40.897Z,16.53
2018-07-19T07:07:13.316Z,10.10
2018-07-19T07:09:45.933Z,12.50
2018-07-19T07:12:19.113Z,15.57
2018-07-19T07:14:51.701Z,10.57
2018-07-19T07:17:24.224Z,11.10
2018-07-19T07:19:56.852Z,10.70
2018-07-19T07:22:29.308Z,8.07
2018-07-19T07:25:01.953Z,8.67
2018-07-19T07:27:35.436Z,8.10
2018-07-19T07:30:08.447Z,9.20
2018-07-19T07:32:40.852Z,7.83
2018-07-19T07:35:13.447Z,6.63
2018-07-19T07:37:46.206Z,9.33
2018-07-19T07:43:49.840Z,6.70
2018-07-19T07:46:22.599Z,7.20
2018-07-19T07:48:55.941Z,5.80
2018-07-19T07:51:28.495Z,9.50
2018-07-19T07:54:01.168Z,13.33
2018-07-19T07:56:33.720Z,10.20
2018-07-19T07:59:06.161Z,13.27
2018-07-19T08:01:38.714Z,10.03
2018-07-19T08:04:46.696Z,13.20
2018-07-19T08:07:19.025Z,12.50
2018-07-19T08:09:51.485Z,10.53
2018-07-19T08:12:24.148Z,9.50
2018-07-19T08:14:56.594Z,8.80
2018-07-19T08:17:29.009Z,15.10
2018-07-19T08:20:01.272Z,8.93
2018-07-19T08:22:33.631Z,11.03
2018-07-19T08:25:06.598Z,12.67
2018-07-19T08:27:39.247Z,12.27
2018-07-19T08:33:38.598Z,9.57
2018-07-19T08:39:32.504Z,13.23
2018-07-19T08:42:05.454Z,9.00
2018-07-19T08:44:38.198Z,8.03
2018-07-19T08:47:11.377Z,12.47
2018-07-19T08:49:44.473Z,14.13
2018-07-19T08:52:17.737Z,8.77
2018-07-19T08:54:50.516Z,7.07
2018-07-19T08:57:23.165Z,10.63
2018-07-19T08:59:56.093Z,10.47
2018-07-19T09:02:28.999Z,9.10
2018-07-19T09:05:01.781Z,12.37
2018-07-19T09:07:34.575Z,8.47
2018-07-19T09:10:08.354Z,13.77
2018-07-19T09:12:41.286Z,11.33
2018-07-19T09:15:14.135Z,12.20
2018-07-19T09:21:07.860Z,7.63
2018-07-19T09:23:40.224Z,8.23
2018-07-19T09:26:12.544Z,7.40
2018-07-19T09:28:45.050Z,7.07
2018-07-19T09:31:20.326Z,8.30
2018-07-19T09:33:52.689Z,8.70
2018-07-19T09:36:25.090Z,6.30
2018-07-19T09:38:58.274Z,6.57
2018-07-19T09:41:30.622Z,5.93
2018-07-19T09:44:02.816Z,8.53
2018-07-19T09:46:35.289Z,8.63
2018-07-19T09:49:07.712Z,8.43
2018-07-19T09:51:40.310Z,7.87
2018-07-19T09:54:17.033Z,11.40
2018-07-19T09:56:49.634Z,10.07
2018-07-19T09:59:22.131Z,9.90
2018-07-19T10:01:54.723Z,12.50
2018-07-19T10:04:26.663Z,7.87
2018-07-19T10:06:59.324Z,10.93
2018-07-19T10:09:31.782Z,12.57
2018-07-19T10:12:04.191Z,10.30
2018-07-19T10:14:36.669Z,15.63
2018-07-19T10:17:10.025Z,10.73
2018-07-19T10:19:42.382Z,8.30
2018-07-19T10:25:39.357Z,14.20
2018-07-19T10:31:33.345Z,14.07
2018-07-19T10:34:06.314Z,15.37
2018-07-19T10:36:39.603Z,18.60
2018-07-19T10:39:12.843Z,15.30
2018-07-19T10:41:46.517Z,15.30
2018-07-19T10:44:19.426Z,13.33
2018-07-19T10:46:52.245Z,9.90
2018-07-19T10:52:32.303Z,10.80
2018-07-19T10:55:05.850Z,11.63
2018-07-19T10:57:38.422Z,10.30
2018-07-19T11:00:10.812Z,11.13
2018-07-19T11:02:43.455Z,9.03
2018-07-19T11:05:18.826Z,10.40
2018-07-19T11:07:51.402Z,10.47
2018-07-19T11:10:23.772Z,8.40
2018-07-19T11:12:56.281Z,12.87
2018-07-19T11:15:29.183Z,24.70
2018-07-19T11:18:01.488Z,48.07
2018-07-19T11:20:33.893Z,19.87
2018-07-19T11:23:06.930Z,79.10
2018-07-19T11:29:01.936Z,35.17
2018-07-19T11:31:34.305Z,17.37
2018-07-19T11:34:06.434Z,29.23
2018-07-19T11:36:38.641Z,21.90
2018-07-19T11:39:11.599Z,17.10
2018-07-19T11:41:44.322Z,13.13
2018-07-19T11:44:16.912Z,13.97
2018-07-19T11:46:49.717Z,11.73
2018-07-19T11:49:21.904Z,14.07
2018-07-19T11:51:54.247Z,13.10
2018-07-19T11:54:26.508Z,12.27
2018-07-19T11:56:58.581Z,13.70
2018-07-19T11:59:35.950Z,10.90
2018-07-19T12:02:10.888Z,11.40
2018-07-19T12:04:43.205Z,11.63
2018-07-19T12:07:15.853Z,14.17
2018-07-19T12:09:48.108Z,14.47
2018-07-19T12:12:20.505Z,13.20
2018-07-19T12:14:52.770Z,9.67
2018-07-19T12:17:24.965Z,11.20
2018-07-19T12:19:57.137Z,14.23
2018-07-19T12:22:31.483Z,12.57
2018-07-19T12:25:04.189Z,11.37
2018-07-19T12:27:36.730Z,11.47
2018-07-19T12:30:09.307Z,11.90
2018-07-19T12:32:41.453Z,9.23
2018-07-19T12:35:13.996Z,8.90
2018-07-19T12:37:46.689Z,7.57
2018-07-19T12:40:19.014Z,10.97
2018-07-19T12:42:51.342Z,8.00
2018-07-19T12:45:24.434Z,10.67
2018-07-19T12:47:58.052Z,9.10
2018-07-19T12:50:30.905Z,11.37
2018-07-19T12:53:06.513Z,10.03
2018-07-19T12:55:38.993Z,6.90
2018-07-19T12:58:11.284Z,10.67
2018-07-19T13:00:43.920Z,7.87
2018-07-19T13:03:15.585Z,9.80
2018-07-19T13:05:47.974Z,10.23
2018-07-19T13:08:20.591Z,9.87
2018-07-19T13:10:52.930Z,10.27
2018-07-19T13:13:26.201Z,10.83
2018-07-19T13:15:57.253Z,13.40
2018-07-19T13:18:29.558Z,8.83
2018-07-19T13:21:01.868Z,15.80
2018-07-19T13:23:34.269Z,10.23
2018-07-19T13:26:06.652Z,9.00
2018-07-19T13:28:39.012Z,12.90
2018-07-19T13:31:14.111Z,12.47
2018-07-19T13:33:47.013Z,12.67
2018-07-19T13:36:19.542Z,8.70
2018-07-19T13:38:52.146Z,8.07
2018-07-19T13:41:24.498Z,7.17
2018-07-19T13:44:08.252Z,15.30
2018-07-19T13:46:40.578Z,11.47
2018-07-19T13:52:43.367Z,15.13
2018-07-19T13:55:16.160Z,15.20
2018-07-19T13:57:49.013Z,12.93
2018-07-19T14:03:42.038Z,7.83
2018-07-19T14:06:14.666Z,20.57
2018-07-19T14:08:47.163Z,14.90
2018-07-19T14:11:21.806Z,12.63
2018-07-19T14:13:54.303Z,13.53
2018-07-19T14:16:27.631Z,12.23
2018-07-19T14:19:00.251Z,11.00
2018-07-19T14:21:31.438Z,15.97
2018-07-19T14:24:04.023Z,10.10
2018-07-19T14:26:36.616Z,9.87
2018-07-19T14:29:09.059Z,20.77
2018-07-19T14:31:41.736Z,43.70
2018-07-19T14:34:14.400Z,37.23
2018-07-19T14:36:54.904Z,39.30
2018-07-19T14:39:34.315Z,15.83
2018-07-19T14:42:07.516Z,11.60
2018-07-19T14:44:40.323Z,9.60
2018-07-19T14:47:12.900Z,15.00
2018-07-19T14:49:45.584Z,7.20
2018-07-19T14:52:18.191Z,13.30
2018-07-19T14:54:58.821Z,14.50
2018-07-19T14:57:31.685Z,15.33
2018-07-19T15:00:06.209Z,12.70
2018-07-19T15:02:38.869Z,15.83
2018-07-19T15:07:49.369Z,8.47
2018-07-19T15:10:22.030Z,7.50
2018-07-19T15:12:59.396Z,11.73
2018-07-19T15:15:32.294Z,15.13
2018-07-19T15:18:05.275Z,14.40
2018-07-19T15:20:36.390Z,11.07
2018-07-19T15:23:08.680Z,14.07
2018-07-19T15:25:41.071Z,19.17
2018-07-19T15:28:13.588Z,7.53
2018-07-19T15:30:46.229Z,23.03
2018-07-19T15:33:19.871Z,15.97
2018-07-19T15:35:59.820Z,19.97
2018-07-19T15:38:33.089Z,23.93
2018-07-19T15:41:07.775Z,25.50
2018-07-19T15:43:41.629Z,14.63
2018-07-19T15:46:14.497Z,19.13
2018-07-19T15:48:47.763Z,18.57
2018-07-19T15:51:20.130Z,18.90
2018-07-19T15:53:54.972Z,17.30
2018-07-19T15:56:38.339Z,19.80
2018-07-19T15:59:11.136Z,11.40
2018-07-19T16:01:44.654Z,23.00
2018-07-19T16:04:18.553Z,20.57
2018-07-19T16:06:52.144Z,20.37
2018-07-19T16:09:25.246Z,20.80
2018-07-19T16:17:55.931Z,15.98
2018-07-19T16:20:31.546Z,21.80
2018-07-19T16:23:07.752Z,16.25
2018-07-19T16:25:43.837Z,19.05
2018-07-19T16:28:20.672Z,14.63
2018-07-19T16:30:53.925Z,25.88
2018-07-19T16:33:40.777Z,31.73
2018-07-19T16:36:16.896Z,21.77
2018-07-19T16:38:50.746Z,18.27
2018-07-19T16:41:28.574Z,29.72
2018-07-19T16:44:01.551Z,18.37
2018-07-19T16:46:34.886Z,21.30
2018-07-19T16:49:12.418Z,15.93
2018-07-19T16:51:46.383Z,22.73
2018-07-19T16:54:19.281Z,20.37
2018-07-19T16:56:54.609Z,18.73
2018-07-19T16:59:27.280Z,29.32
2018-07-19T17:02:02.113Z,27.85
2018-07-19T17:04:35.839Z,15.10
2018-07-19T17:07:09.721Z,20.95
2018-07-19T17:09:49.621Z,40.48
2018-07-19T17:12:23.740Z,29.57
2018-07-19T17:14:56.224Z,24.63
2018-07-19T17:20:53.092Z,13.98
2018-07-19T17:23:26.115Z,17.35
2018-07-19T17:25:57.699Z,23.80
2018-07-19T17:28:30.464Z,33.92
2018-07-19T17:31:03.078Z,24.27
2018-07-19T17:33:35.758Z,20.85
2018-07-19T17:36:08.481Z,18.75
2018-07-19T17:38:41.266Z,18.25
2018-07-19T17:41:14.195Z,18.57
2018-07-19T17:43:47.034Z,24.65
2018-07-19T17:46:21.305Z,19.02
2018-07-19T17:48:55.028Z,22.95
2018-07-19T17:51:37.884Z,20.60
2018-07-19T17:54:33.200Z,21.87
2018-07-19T17:57:21.488Z,19.35
2018-07-19T18:00:18.145Z,21.60
2018-07-19T18:03:04.003Z,17.48
2018-07-19T18:05:37.944Z,16.82
2018-07-19T18:08:11.905Z,20.85
2018-07-19T18:10:44.215Z,26.52
2018-07-19T18:13:16.383Z,21.02
2018-07-19T18:15:48.778Z,18.87
2018-07-19T18:18:21.280Z,28.67
2018-07-19T18:20:53.648Z,36.28
2018-07-19T18:23:27.016Z,23.67
2018-07-19T18:26:03.653Z,34.48
2018-07-19T18:28:36.554Z,24.87
2018-07-19T18:31:09.718Z,22.80
2018-07-19T18:33:42.640Z,37.50
2018-07-19T18:36:16.389Z,25.02
2018-07-19T18:38:51.499Z,28.07
2018-07-19T18:41:24.515Z,27.87
2018-07-19T18:43:57.922Z,25.40
2018-07-19T18:46:30.147Z,24.47
2018-07-19T18:49:02.837Z,24.47
2018-07-19T18:51:59.386Z,27.42
2018-07-19T18:54:32.015Z,23.92
2018-07-19T18:57:04.838Z,23.62
2018-07-19T18:59:37.662Z,27.40
2018-07-19T19:02:10.552Z,24.47
2018-07-19T19:04:43.217Z,29.57
2018-07-19T19:07:17.090Z,38.75
2018-07-19T19:09:50.977Z,31.52
2018-07-19T19:12:30.996Z,28.92
2018-07-19T19:18:25.118Z,24.95
2018-07-19T19:20:58.756Z,20.95
2018-07-19T19:23:32.679Z,28.42
2018-07-19T19:26:05.090Z,30.62
2018-07-19T19:28:38.724Z,29.35
2018-07-19T19:31:11.671Z,23.30
2018-07-19T19:33:45.239Z,31.73
2018-07-19T19:36:20.116Z,33.92
2018-07-19T19:38:54.398Z,24.43
2018-07-19T19:41:27.000Z,23.27
2018-07-19T19:43:59.475Z,26.90
2018-07-19T19:46:32.439Z,32.28
2018-07-19T19:49:04.868Z,36.15
2018-07-19T19:51:39.549Z,31.17
2018-07-19T19:54:12.744Z,22.27
2018-07-19T19:56:45.356Z,31.77
2018-07-19T19:59:26.123Z,30.77
2018-07-19T20:01:58.610Z,25.68
2018-07-19T20:04:34.421Z,34.83
2018-07-19T20:07:08.656Z,22.77
2018-07-19T20:09:43.455Z,28.15
2018-07-19T20:12:16.268Z,30.95
2018-07-19T20:14:49.629Z,35.35
2018-07-19T20:17:22.219Z,27.42
2018-07-19T20:19:54.633Z,27.05
2018-07-19T20:22:27.780Z,24.40
2018-07-19T20:25:02.563Z,30.35
2018-07-19T20:27:38.674Z,22.07
2018-07-19T20:30:12.390Z,32.55
2018-07-19T20:36:12.520Z,30.10
2018-07-19T20:38:45.189Z,33.50
2018-07-19T20:41:17.981Z,27.32
2018-07-19T20:43:51.186Z,25.65
2018-07-19T20:46:23.238Z,41.65
2018-07-19T20:48:56.567Z,25.35
2018-07-19T20:51:33.391Z,29.42
2018-07-19T20:54:07.956Z,22.37
2018-07-19T20:56:41.552Z,29.52
2018-07-19T20:59:13.576Z,27.60
2018-07-19T21:01:45.571Z,30.80
2018-07-19T21:04:21.263Z,29.85
2018-07-19T21:11:57.379Z,28.57
2018-07-19T21:14:37.656Z,31.68
2018-07-19T21:17:17.122Z,26.20
2018-07-19T21:19:49.886Z,31.42
2018-07-19T21:22:24.563Z,32.33
2018-07-19T21:24:56.924Z,28.15
2018-07-19T21:27:31.334Z,36.68
2018-07-19T21:30:10.188Z,31.73
2018-07-19T21:32:44.240Z,28.50
2018-07-19T21:35:22.396Z,34.67
2018-07-19T21:37:59.546Z,32.73
2018-07-19T21:40:33.411Z,41.42
2018-07-19T21:43:06.730Z,35.40
2018-07-19T21:46:02.157Z,38.55
2018-07-19T21:48:35.756Z,29.23
2018-07-19T21:54:42.450Z,33.28
2018-07-19T21:57:15.232Z,28.90
2018-07-19T21:59:47.445Z,56.00
2018-07-19T22:02:19.700Z,30.15
2018-07-19T22:04:52.137Z,24.43
2018-07-19T22:07:24.316Z,28.02
2018-07-19T22:09:56.583Z,29.55
2018-07-19T22:12:28.854Z,36.58
2018-07-19T22:15:01.250Z,38.45
2018-07-19T22:21:04.333Z,30.60
2018-07-19T22:23:36.502Z,32.00
2018-07-19T22:26:08.697Z,28.30
2018-07-19T22:28:40.992Z,27.67
2018-07-19T22:31:13.493Z,30.43
2018-07-19T22:33:45.626Z,30.90
2018-07-19T22:36:17.845Z,33.87
2018-07-19T22:38:50.214Z,27.22
2018-07-19T22:41:22.825Z,39.18
2018-07-19T22:43:54.959Z,30.82
2018-07-19T22:46:27.478Z,35.50
2018-07-19T22:48:59.616Z,37.70
2018-07-19T22:51:32.693Z,27.45
2018-07-19T22:54:04.861Z,34.27
2018-07-19T22:56:37.105Z,31.60
2018-07-19T22:59:12.619Z,29.53
2018-07-19T23:01:44.910Z,38.93
2018-07-19T23:04:17.096Z,38.53
2018-07-19T23:06:49.204Z,33.90
2018-07-19T23:09:21.656Z,25.90
2018-07-19T23:11:54.057Z,21.90
2018-07-19T23:14:26.575Z,23.57
2018-07-19T23:16:58.727Z,30.13
2018-07-19T23:19:31.748Z,23.30
2018-07-19T23:22:03.865Z,36.53
2018-07-19T23:24:36.105Z,39.53
2018-07-19T23:27:08.584Z,40.03
2018-07-19T23:29:41.006Z,25.17
2018-07-19T23:32:14.604Z,29.37
2018-07-19T23:34:47.179Z,25.17
2018-07-19T23:37:24.754Z,28.80
2018-07-19T23:40:02.950Z,29.70
2018-07-19T23:42:38.450Z,32.77
2018-07-19T23:45:19.020Z,32.37
2018-07-19T23:47:51.483Z,33.97
2018-07-19T23:50:24.286Z,29.73
2018-07-19T23:52:58.892Z,35.97
2018-07-19T23:55:35.580Z,37.00
2018-07-19T23:58:08.197Z,27.23
